Airfield :
LOGIN :

Register | Disclaimer

   EN    FR    IT 

 










Legend :    VFR   Marginal VFR   IFR   Intensive IFR   Very Intensive IFR
Visi :
Ceiling :
>= 8 km
>= 3000ft
5 to 8 km
1000 to 3000 ft
1500m to 5 km
500 to 1000 ft
800 to 1500m
200 to 500 ft
< 800m
< 200 ft
Symbols :   Thunderstorms  Fog  Heavy snow  Heavy precipitations  Wind > 20 kt
SIGMETs :     Misc.  Thunderstorms  Icing  Turbulence  Mountain Waves  Volcanic Ashes






- Airport Elevation : 102 ft
- IATA code : KEL


EDHK - Holtenau

CURRENT METAR :
  • 130820Z 14010KT 100V170 CAVOK 02/M01 Q0982

EXPIRED METARs :
  • 130750Z 13009KT 090V160 9999 FEW013 01/M01 Q0982
  • 130720Z 14011KT CAVOK 01/M01 Q0982
  • 130650Z 14012KT 9999 BKN011 01/M01 Q0982
  • 130620Z 14012KT 9999 SCT010 01/M01 Q0983

TAF TAF EDHK
Valid from the 13 at 09:00 until the 13 at 18:00 UTC


130800Z 1309/1318 13013G23KT 9999 FEW015
PROB30
TEMPO 1309/1311 BKN009
BECMG 1312/1315 11010KT



MET'MAP, your aeronautical weather chart ! - Copyright ORBIFLY December 2007 - Disclaimer

ORBIFLY MET'MAP TEAM :

Programming & Development : Alexandra Zaïnal
Concept & original design : Baudouin d'Aumeries
Assistance for programming : Marc-Olivier Méhu
Technical & hardware support : Manuel Goepfert

Contact : metmap@orbifly.com




SOURCES & CREDITS :

   NOAA